Time;durP1;ratioP1;P1;durP2;ratioP2;P2;SDS_P1;SDS_P2;PMS_P1;PMS_P2;Temp;Humidity;BMP_temperature;BMP_pressure;BME280_temperature;BME280_humidity;BME280_pressure;Samples;Min_cycle;Max_cycle;Signal;HPM_P1;HPM_P2
2022/12/11 00:00:00;;;;;;;12.82;8.55;;;6.90;99.90;;;;;;5113455;28;20485;-58
2022/12/11 00:02:27;;;;;;;11.90;8.80;;;6.90;99.90;;;;;;5113747;28;20023;-53
2022/12/11 00:04:53;;;;;;;11.57;8.50;;;6.90;99.90;;;;;;5112843;28;20486;-57
2022/12/11 00:07:19;;;;;;;11.70;7.88;;;6.90;99.90;;;;;;5112836;28;20066;-58
2022/12/11 00:09:44;;;;;;;12.07;8.68;;;7.00;99.90;;;;;;5112497;28;20019;-57
2022/12/11 00:12:10;;;;;;;12.20;8.32;;;7.00;99.90;;;;;;5112950;28;20369;-51
2022/12/11 00:14:36;;;;;;;10.95;7.93;;;7.10;99.90;;;;;;5112436;28;20034;-53
2022/12/11 00:17:01;;;;;;;11.40;7.53;;;7.20;99.90;;;;;;5112450;28;20020;-54
2022/12/11 00:19:27;;;;;;;12.07;8.18;;;7.20;99.90;;;;;;5111966;28;20027;-51
2022/12/11 00:21:52;;;;;;;10.55;7.93;;;7.20;99.90;;;;;;5112455;28;20024;-52
2022/12/11 00:24:18;;;;;;;10.60;7.75;;;7.20;99.90;;;;;;5112213;28;20384;-52
2022/12/11 00:26:44;;;;;;;10.38;7.28;;;7.20;99.90;;;;;;5112248;28;20088;-58
2022/12/11 00:29:13;;;;;;;11.38;8.18;;;7.20;99.90;;;;;;5111904;28;20520;-52
2022/12/11 00:31:40;;;;;;;10.35;7.90;;;7.20;99.90;;;;;;5112161;28;20389;-53
2022/12/11 00:34:06;;;;;;;10.68;7.03;;;7.10;99.90;;;;;;5111550;28;20035;-51
2022/12/11 00:36:32;;;;;;;10.15;7.65;;;7.20;99.90;;;;;;5112166;28;20016;-52
2022/12/11 00:38:57;;;;;;;9.60;6.80;;;7.10;99.90;;;;;;5111684;28;20031;-53
2022/12/11 00:41:23;;;;;;;9.23;6.88;;;7.10;99.90;;;;;;5111981;28;20028;-51
2022/12/11 00:43:50;;;;;;;10.25;7.47;;;7.00;99.90;;;;;;5112139;28;20020;-51
2022/12/11 00:46:15;;;;;;;10.02;7.15;;;7.00;99.90;;;;;;5111980;28;20384;-52
2022/12/11 00:48:41;;;;;;;9.82;7.00;;;7.00;99.90;;;;;;5111272;28;20032;-52
2022/12/11 00:51:07;;;;;;;8.60;6.18;;;7.00;99.90;;;;;;5111892;28;20031;-55
2022/12/11 00:53:32;;;;;;;9.77;6.80;;;6.90;99.90;;;;;;5111908;28;20033;-51
2022/12/11 00:55:58;;;;;;;9.30;6.80;;;6.90;99.90;;;;;;5111802;28;20059;-55
2022/12/11 00:58:24;;;;;;;8.98;7.00;;;6.90;99.90;;;;;;5111132;28;20072;-53
2022/12/11 01:00:49;;;;;;;9.43;6.30;;;6.90;99.90;;;;;;5111599;28;20016;-52
2022/12/11 01:03:16;;;;;;;9.25;6.97;;;6.90;99.90;;;;;;5112118;28;20016;-51
2022/12/11 01:05:49;;;;;;;8.90;6.40;;;6.80;99.90;;;;;;5112124;28;20024;-57
2022/12/11 01:08:15;;;;;;;8.80;6.47;;;6.90;99.90;;;;;;5111068;28;20023;-52
2022/12/11 01:10:40;;;;;;;8.50;6.32;;;7.00;99.90;;;;;;5111610;28;20038;-57
2022/12/11 01:13:06;;;;;;;10.70;6.65;;;7.10;99.90;;;;;;5111553;28;20518;-54
2022/12/11 01:15:41;;;;;;;9.63;6.45;;;7.10;99.90;;;;;;5111238;28;20142;-53
2022/12/11 01:18:06;;;;;;;9.90;6.72;;;7.20;99.90;;;;;;5110921;28;20016;-54
2022/12/11 01:20:32;;;;;;;8.30;6.03;;;7.20;99.90;;;;;;5111425;28;20392;-56
2022/12/11 01:22:59;;;;;;;9.00;6.05;;;7.20;99.90;;;;;;5111455;28;20030;-52
2022/12/11 01:25:26;;;;;;;8.77;5.80;;;7.20;99.90;;;;;;5111425;28;20031;-53
2022/12/11 01:27:54;;;;;;;8.20;6.30;;;7.20;99.90;;;;;;5111052;28;20042;-54
2022/12/11 01:30:22;;;;;;;8.43;6.13;;;7.30;99.90;;;;;;5111238;28;20051;-55
2022/12/11 01:32:48;;;;;;;8.18;5.72;;;7.20;99.90;;;;;;5111620;28;20038;-54
2022/12/11 01:35:15;;;;;;;8.27;5.88;;;7.20;99.90;;;;;;5111275;28;20024;-52
2022/12/11 01:37:41;;;;;;;7.78;6.03;;;7.20;99.90;;;;;;5111114;28;20491;-53
2022/12/11 01:40:07;;;;;;;8.32;5.90;;;7.10;99.90;;;;;;5109347;28;20123;-56
2022/12/11 01:42:34;;;;;;;8.50;5.90;;;7.10;99.90;;;;;;5111049;28;20016;-59
2022/12/11 01:45:35;;;;;;;7.57;5.88;;;7.10;99.90;;;;;;5111125;28;20032;-51
2022/12/11 01:48:04;;;;;;;7.78;5.53;;;7.00;99.90;;;;;;5110567;28;20023;-53
2022/12/11 01:50:33;;;;;;;8.77;6.65;;;7.00;99.90;;;;;;5111151;28;20032;-57
2022/12/11 01:52:59;;;;;;;8.18;5.72;;;6.90;99.90;;;;;;5111029;28;20495;-53
2022/12/11 01:55:25;;;;;;;7.82;5.70;;;6.90;99.90;;;;;;5111203;28;20039;-51
2022/12/11 01:57:51;;;;;;;9.15;5.57;;;6.90;99.90;;;;;;5110766;28;20473;-52
2022/12/11 02:00:18;;;;;;;6.63;5.25;;;6.90;99.90;;;;;;5110583;28;20027;-51
2022/12/11 02:02:44;;;;;;;7.10;5.05;;;6.90;99.90;;;;;;5110837;28;20501;-51
2022/12/11 02:05:09;;;;;;;7.28;5.50;;;6.90;99.90;;;;;;5110870;28;20066;-54
2022/12/11 02:07:41;;;;;;;7.68;5.28;;;6.90;99.90;;;;;;5110539;28;20034;-54
2022/12/11 02:10:08;;;;;;;7.15;4.95;;;7.00;99.90;;;;;;5110383;28;20035;-51
2022/12/11 02:12:44;;;;;;;9.15;5.35;;;7.00;99.90;;;;;;5110569;28;20032;-51
2022/12/11 02:15:34;;;;;;;7.75;5.53;;;7.10;99.90;;;;;;5110904;28;20030;-52
2022/12/11 02:18:30;;;;;;;6.78;5.28;;;7.20;99.90;;;;;;5110888;28;20531;-54
2022/12/11 02:21:21;;;;;;;7.60;5.18;;;7.20;99.90;;;;;;5110653;28;20105;-51
2022/12/11 02:24:05;;;;;;;6.13;4.70;;;7.20;99.90;;;;;;5111106;28;20019;-51
2022/12/11 02:27:02;;;;;;;6.70;5.18;;;7.20;99.90;;;;;;5110743;28;20083;-54
2022/12/11 02:29:34;;;;;;;7.25;5.15;;;7.30;99.90;;;;;;5112679;28;20076;-51
2022/12/11 02:32:09;;;;;;;7.57;4.95;;;7.20;99.90;;;;;;5114572;28;20020;-51
2022/12/11 02:35:04;;;;;;;7.63;5.28;;;7.20;99.90;;;;;;5114405;28;20019;-54
2022/12/11 02:37:31;;;;;;;;;;;7.20;99.90;;;;;;5114339;28;20061;-51
2022/12/11 02:39:57;;;;;;;6.50;4.53;;;7.10;99.90;;;;;;5114008;28;19915;-52
2022/12/11 02:42:28;;;;;;;7.50;5.30;;;7.10;99.90;;;;;;5114245;28;20162;-51
2022/12/11 02:44:56;;;;;;;6.68;4.88;;;7.10;99.90;;;;;;5114201;28;20027;-52
2022/12/11 02:47:28;;;;;;;7.00;5.18;;;7.10;99.90;;;;;;5114416;28;20782;-51
2022/12/11 02:49:57;;;;;;;6.03;4.70;;;7.10;99.90;;;;;;5114254;28;20305;-53
2022/12/11 02:52:24;;;;;;;7.15;5.25;;;7.00;99.90;;;;;;5114295;28;20032;-51
2022/12/11 02:54:53;;;;;;;6.85;5.20;;;7.00;99.90;;;;;;5113867;28;20496;-51
2022/12/11 02:57:41;;;;;;;6.18;5.05;;;7.00;99.90;;;;;;5113613;28;20063;-54
2022/12/11 03:00:08;;;;;;;6.07;4.45;;;6.90;99.90;;;;;;5113462;28;20046;-53
2022/12/11 03:02:34;;;;;;;6.43;5.28;;;6.90;99.90;;;;;;5113814;28;20582;-56
2022/12/11 03:05:00;;;;;;;8.48;5.40;;;6.90;99.90;;;;;;5113824;28;20028;-56
2022/12/11 03:07:30;;;;;;;7.25;5.65;;;6.90;99.90;;;;;;5113552;27;20073;-52
2022/12/11 03:09:56;;;;;;;7.47;5.18;;;7.00;99.90;;;;;;5113429;28;20469;-51
2022/12/11 03:12:28;;;;;;;7.82;5.25;;;7.10;99.90;;;;;;5113576;28;20027;-51
2022/12/11 03:14:56;;;;;;;7.20;5.25;;;7.10;99.90;;;;;;5113463;28;20031;-52
2022/12/11 03:17:29;;;;;;;6.47;4.95;;;7.20;99.90;;;;;;5113448;28;20023;-51
2022/12/11 03:20:03;;;;;;;5.85;4.43;;;7.20;99.90;;;;;;5113130;28;20094;-53
2022/12/11 03:22:46;;;;;;;8.25;5.18;;;7.20;99.90;;;;;;5113445;28;20027;-54
2022/12/11 03:25:25;;;;;;;6.85;5.28;;;7.20;99.90;;;;;;5113343;28;20059;-55
2022/12/11 03:28:18;;;;;;;6.88;5.22;;;7.20;99.90;;;;;;5112157;28;20051;-52
2022/12/11 03:30:48;;;;;;;8.57;5.30;;;7.20;99.90;;;;;;5106206;28;20051;-51
2022/12/11 03:33:22;;;;;;;6.50;5.35;;;7.20;99.90;;;;;;5113443;28;20019;-51
2022/12/11 03:35:50;;;;;;;;;;;7.20;99.90;;;;;;5113831;28;20027;-54
2022/12/11 03:38:22;;;;;;;6.05;4.68;;;7.10;99.90;;;;;;5112704;28;19907;-56
2022/12/11 03:40:52;;;;;;;7.03;5.18;;;7.10;99.90;;;;;;5111994;28;20504;-52
2022/12/11 03:43:20;;;;;;;7.15;4.57;;;7.10;99.90;;;;;;5113444;28;20456;-51
2022/12/11 03:45:48;;;;;;;7.45;5.20;;;7.00;99.90;;;;;;5113055;28;20031;-54
2022/12/11 03:48:15;;;;;;;7.53;5.35;;;7.00;99.90;;;;;;5112379;28;20040;-53
2022/12/11 03:50:42;;;;;;;7.60;4.95;;;6.90;99.90;;;;;;5113063;28;20055;-55
2022/12/11 03:53:09;;;;;;;6.63;4.97;;;6.90;99.90;;;;;;5113079;27;20431;-52
2022/12/11 03:55:36;;;;;;;7.05;5.03;;;6.90;99.90;;;;;;5112897;28;20049;-55
2022/12/11 03:58:02;;;;;;;7.75;5.15;;;6.90;99.90;;;;;;5112233;28;20031;-56
2022/12/11 04:00:28;;;;;;;6.28;4.82;;;6.90;99.90;;;;;;5112898;28;20090;-57
2022/12/11 04:03:12;;;;;;;7.05;4.72;;;6.80;99.90;;;;;;5112906;28;20024;-51
2022/12/11 04:05:42;;;;;;;7.35;5.38;;;6.80;99.90;;;;;;5112903;27;20051;-51
2022/12/11 04:08:08;;;;;;;7.80;5.60;;;6.90;99.90;;;;;;5112647;28;20031;-52
2022/12/11 04:10:34;;;;;;;7.13;5.40;;;7.00;99.90;;;;;;5112554;28;20047;-51
2022/12/11 04:12:59;;;;;;;6.40;5.03;;;7.10;99.90;;;;;;5113031;28;20062;-51
2022/12/11 04:15:25;;;;;;;6.70;4.95;;;7.10;99.90;;;;;;5112464;28;20023;-54
2022/12/11 04:26:21;;;;;;;6.85;5.00;;;7.20;99.90;;;;;;5112348;28;20034;-51
2022/12/11 04:28:48;;;;;;;6.38;4.85;;;7.20;99.90;;;;;;5111909;28;20019;-51
2022/12/11 04:31:18;;;;;;;7.20;5.07;;;7.20;99.90;;;;;;5110943;28;20051;-52
2022/12/11 04:33:44;;;;;;;5.90;4.53;;;7.20;99.90;;;;;;5110895;28;20032;-51
2022/12/11 04:36:10;;;;;;;8.82;5.15;;;7.20;99.90;;;;;;5112093;28;20028;-52
2022/12/11 04:38:36;;;;;;;5.93;4.70;;;7.10;99.90;;;;;;5111425;28;20026;-53
2022/12/11 04:41:09;;;;;;;6.57;4.50;;;7.10;99.90;;;;;;5111991;28;20106;-54
2022/12/11 04:43:35;;;;;;;8.13;5.05;;;7.10;99.90;;;;;;5111908;28;20425;-56
2022/12/11 04:46:15;;;;;;;6.47;4.65;;;7.00;99.90;;;;;;5111533;28;20110;-52
2022/12/11 04:48:41;;;;;;;7.30;4.75;;;7.00;99.90;;;;;;5111182;28;20088;-54
2022/12/11 04:51:07;;;;;;;7.13;5.05;;;7.00;99.90;;;;;;5110173;28;20023;-51
2022/12/11 04:53:33;;;;;;;7.82;5.20;;;7.00;99.90;;;;;;5111674;28;20027;-52
2022/12/11 04:55:59;;;;;;;6.22;4.63;;;6.90;99.90;;;;;;5111635;28;20072;-52
2022/12/11 04:58:25;;;;;;;5.93;4.82;;;6.90;99.90;;;;;;5110899;28;20045;-52
2022/12/11 05:00:51;;;;;;;7.18;5.13;;;6.90;99.90;;;;;;5111818;28;20104;-52
2022/12/11 05:03:17;;;;;;;6.65;5.00;;;6.90;99.90;;;;;;5111845;28;20109;-52
2022/12/11 05:05:50;;;;;;;6.88;5.00;;;6.90;99.90;;;;;;5111667;28;20058;-51
2022/12/11 05:08:17;;;;;;;7.22;4.82;;;6.90;99.90;;;;;;5111005;28;20107;-54
2022/12/11 05:10:42;;;;;;;6.70;4.85;;;6.90;99.90;;;;;;5111616;28;20588;-51
2022/12/11 05:13:08;;;;;;;7.13;5.28;;;7.10;99.90;;;;;;5111431;28;20119;-52
2022/12/11 05:15:34;;;;;;;8.25;5.05;;;7.10;99.90;;;;;;5111477;28;20051;-54
2022/12/11 05:17:59;;;;;;;6.03;4.75;;;7.20;99.90;;;;;;5110890;28;20019;-52
2022/12/11 05:20:25;;;;;;;7.28;5.13;;;7.20;99.90;;;;;;5111426;28;20047;-55
2022/12/11 05:22:51;;;;;;;6.78;4.85;;;7.20;99.90;;;;;;5111475;28;20062;-55
2022/12/11 05:25:16;;;;;;;6.47;5.05;;;7.20;99.90;;;;;;5111513;28;20034;-54
2022/12/11 05:27:42;;;;;;;7.35;5.28;;;7.20;99.90;;;;;;5111104;28;20050;-54
2022/12/11 05:30:09;;;;;;;7.00;5.00;;;7.20;99.90;;;;;;5109968;28;20039;-51
2022/12/11 05:32:34;;;;;;;7.43;4.97;;;7.20;99.90;;;;;;5111352;28;20465;-53
2022/12/11 05:35:00;;;;;;;7.93;5.32;;;7.20;99.90;;;;;;5111274;28;20035;-51
2022/12/11 05:37:25;;;;;;;6.30;4.72;;;7.20;99.90;;;;;;5111162;28;20038;-51
2022/12/11 05:39:51;;;;;;;5.78;4.63;;;7.10;99.80;;;;;;5110762;28;20034;-52
2022/12/11 05:42:17;;;;;;;6.18;4.82;;;7.10;99.80;;;;;;5111181;28;20038;-54
2022/12/11 05:44:42;;;;;;;7.47;5.38;;;7.00;99.90;;;;;;5111295;28;20431;-54
2022/12/11 05:47:08;;;;;;;6.88;4.85;;;7.00;99.90;;;;;;5111209;28;20059;-56
2022/12/11 05:49:33;;;;;;;7.00;4.78;;;7.00;99.90;;;;;;5110821;28;20102;-56
2022/12/11 05:51:59;;;;;;;7.25;5.38;;;6.90;99.90;;;;;;5111145;28;20015;-55
2022/12/11 05:54:25;;;;;;;8.13;5.50;;;6.90;99.90;;;;;;5111022;28;20039;-51
2022/12/11 05:56:50;;;;;;;7.97;5.45;;;6.90;99.90;;;;;;5109577;28;20119;-52
2022/12/11 05:59:18;;;;;;;7.93;5.15;;;6.90;99.90;;;;;;5110606;28;20020;-51
2022/12/11 06:01:44;;;;;;;10.02;5.88;;;6.90;99.90;;;;;;5111096;28;20020;-56
2022/12/11 06:04:10;;;;;;;7.25;5.55;;;6.80;99.90;;;;;;5113081;28;20381;-51
2022/12/11 06:06:37;;;;;;;6.57;5.35;;;6.80;99.90;;;;;;5114818;28;20106;-51
2022/12/11 06:09:04;;;;;;;7.40;5.70;;;6.90;99.90;;;;;;5114559;28;20024;-53
2022/12/11 06:11:32;;;;;;;9.00;5.63;;;6.90;99.90;;;;;;5114860;28;20027;-55
2022/12/11 06:13:59;;;;;;;7.22;5.38;;;7.00;99.80;;;;;;5114840;28;20024;-52
2022/12/11 06:16:24;;;;;;;7.43;5.75;;;7.10;99.70;;;;;;5114861;28;20068;-52
2022/12/11 06:18:50;;;;;;;7.07;5.57;;;7.10;99.60;;;;;;5114609;28;20019;-56
2022/12/11 06:21:28;;;;;;;8.43;6.10;;;7.10;99.60;;;;;;5113439;28;20542;-58
2022/12/11 06:23:56;;;;;;;8.18;5.68;;;7.10;99.60;;;;;;5114708;28;20042;-56
2022/12/11 06:26:21;;;;;;;7.82;5.63;;;7.10;99.50;;;;;;5114583;27;20089;-51
2022/12/11 06:28:48;;;;;;;9.10;5.78;;;7.20;99.50;;;;;;5114111;28;20107;-51
2022/12/11 06:31:14;;;;;;;7.20;5.40;;;7.20;99.50;;;;;;5114588;28;20024;-51
2022/12/11 06:33:40;;;;;;;8.60;5.55;;;7.10;99.40;;;;;;5113717;28;20028;-51
2022/12/11 06:36:09;;;;;;;7.93;5.45;;;7.10;99.40;;;;;;5114317;27;20020;-51
2022/12/11 06:38:35;;;;;;;7.47;5.53;;;7.00;99.50;;;;;;5113908;28;20048;-53
2022/12/11 06:41:04;;;;;;;9.13;6.45;;;7.00;99.50;;;;;;5114599;28;20043;-51
2022/12/11 06:43:30;;;;;;;7.90;5.43;;;7.00;99.50;;;;;;5114366;28;20441;-51
2022/12/11 06:45:56;;;;;;;8.95;5.85;;;6.90;99.50;;;;;;5114326;28;20385;-51
2022/12/11 06:48:22;;;;;;;6.72;5.43;;;6.90;99.60;;;;;;5113612;28;20034;-53
2022/12/11 06:50:48;;;;;;;7.20;5.32;;;6.80;99.60;;;;;;5114014;28;20099;-53
2022/12/11 06:53:14;;;;;;;7.95;5.53;;;6.80;99.60;;;;;;5114340;28;20457;-53
2022/12/11 06:55:40;;;;;;;7.60;5.78;;;6.80;99.60;;;;;;5113996;28;20098;-57
2022/12/11 06:58:07;;;;;;;9.00;5.85;;;6.80;99.70;;;;;;5113328;28;20059;-54
2022/12/11 07:00:35;;;;;;;6.55;5.30;;;6.80;99.70;;;;;;5113837;28;20484;-51
2022/12/11 07:03:00;;;;;;;7.60;5.80;;;6.70;99.60;;;;;;5113809;28;20076;-51
2022/12/11 07:05:26;;;;;;;8.38;6.57;;;6.70;99.70;;;;;;5113636;28;20032;-57
2022/12/11 07:07:53;;;;;;;7.90;5.78;;;6.80;99.70;;;;;;5113452;28;20114;-51
2022/12/11 07:10:19;;;;;;;9.65;6.57;;;6.80;99.60;;;;;;5113576;28;20500;-53
2022/12/11 07:12:45;;;;;;;8.93;5.63;;;6.90;99.50;;;;;;5113653;28;20032;-51
2022/12/11 07:15:11;;;;;;;9.27;6.53;;;6.90;99.40;;;;;;5113363;28;20240;-57
2022/12/11 07:17:36;;;;;;;8.30;6.03;;;7.00;99.40;;;;;;5113102;28;20099;-54
2022/12/11 07:20:03;;;;;;;8.60;6.03;;;7.00;99.40;;;;;;5112752;28;20028;-58
2022/12/11 07:22:29;;;;;;;10.05;6.90;;;7.00;99.40;;;;;;5113341;28;20054;-56
2022/12/11 07:24:55;;;;;;;9.43;6.53;;;7.00;99.30;;;;;;5113419;28;20028;-58
2022/12/11 07:27:21;;;;;;;10.05;6.53;;;7.10;99.20;;;;;;5113262;27;20081;-53
2022/12/11 07:29:47;;;;;;;10.77;7.10;;;7.00;99.10;;;;;;5112877;28;20032;-51
2022/12/11 07:32:13;;;;;;;9.82;7.28;;;7.00;99.10;;;;;;5112567;28;20027;-55
2022/12/11 07:34:39;;;;;;;9.07;7.00;;;7.00;99.20;;;;;;5112937;28;20102;-54
2022/12/11 07:37:04;;;;;;;10.07;6.65;;;7.00;99.20;;;;;;5111861;28;20111;-55
2022/12/11 07:39:30;;;;;;;10.93;6.65;;;6.90;99.30;;;;;;5112540;28;20481;-52
2022/12/11 07:41:56;;;;;;;10.20;6.40;;;6.90;99.30;;;;;;5112959;28;20022;-51
2022/12/11 07:44:21;;;;;;;9.23;6.45;;;6.90;99.40;;;;;;5113060;28;20100;-52
2022/12/11 07:46:47;;;;;;;7.97;6.32;;;6.90;99.40;;;;;;5113016;28;20110;-55
2022/12/11 07:49:12;;;;;;;9.68;6.57;;;6.80;99.40;;;;;;5112621;28;20047;-55
2022/12/11 07:51:38;;;;;;;10.15;7.60;;;6.80;99.50;;;;;;5113115;28;20464;-55
2022/12/11 07:54:11;;;;;;;9.27;6.80;;;6.80;99.40;;;;;;5113141;28;20024;-55
2022/12/11 07:56:37;;;;;;;12.80;8.43;;;6.80;99.50;;;;;;5112964;28;20046;-51
2022/12/11 07:59:04;;;;;;;11.20;7.18;;;6.80;99.50;;;;;;5112418;28;20747;-51
2022/12/11 08:01:35;;;;;;;9.68;6.72;;;6.70;99.50;;;;;;5112791;28;20054;-55
2022/12/11 08:04:01;;;;;;;11.35;7.85;;;6.70;99.50;;;;;;5112835;28;20066;-57
2022/12/11 08:06:29;;;;;;;10.75;6.78;;;6.70;99.60;;;;;;5112745;28;20027;-53
2022/12/11 08:09:00;;;;;;;10.68;7.38;;;6.70;99.60;;;;;;5112183;28;20057;-53
2022/12/11 08:11:27;;;;;;;11.15;7.97;;;6.70;99.70;;;;;;5112571;28;20026;-52
2022/12/11 08:13:52;;;;;;;11.82;7.55;;;6.70;99.80;;;;;;5112443;28;20114;-53
2022/12/11 08:16:18;;;;;;;10.43;7.45;;;6.70;99.80;;;;;;5112419;28;20107;-52
2022/12/11 08:18:46;;;;;;;27.60;16.95;;;6.70;99.70;;;;;;5112172;28;20043;-52
2022/12/11 08:21:15;;;;;;;26.50;15.57;;;6.60;96.70;;;;;;5112647;28;20095;-57
2022/12/11 08:23:41;;;;;;;26.55;15.27;;;6.10;94.10;;;;;;5112561;28;20056;-57
2022/12/11 08:26:12;;;;;;;22.88;14.93;;;5.90;95.30;;;;;;5110946;28;20595;-54
2022/12/11 08:28:38;;;;;;;26.40;15.15;;;5.90;96.30;;;;;;5111849;28;20026;-56
2022/12/11 08:31:06;;;;;;;22.77;14.45;;;6.00;96.90;;;;;;5112432;28;20028;-55
2022/12/11 08:33:32;;;;;;;22.77;14.25;;;6.10;97.20;;;;;;5112270;28;20031;-56
2022/12/11 08:36:00;;;;;;;24.45;14.88;;;6.20;97.40;;;;;;5112192;28;20030;-56
2022/12/11 08:38:26;;;;;;;24.33;14.85;;;6.30;97.70;;;;;;5110523;28;20063;-56
2022/12/11 08:40:52;;;;;;;20.90;13.90;;;6.40;97.80;;;;;;5112096;28;20062;-55
2022/12/11 08:43:17;;;;;;;20.58;13.30;;;6.40;97.90;;;;;;5112040;28;20020;-55
2022/12/11 08:45:43;;;;;;;21.63;13.20;;;6.50;98.00;;;;;;5112023;28;20028;-56
2022/12/11 08:48:08;;;;;;;22.08;13.23;;;6.60;98.00;;;;;;5111339;28;20034;-54
2022/12/11 08:50:35;;;;;;;20.73;13.40;;;6.60;98.00;;;;;;5112011;28;20039;-56
2022/12/11 08:53:01;;;;;;;18.98;12.70;;;6.60;98.10;;;;;;5112015;28;20497;-55
2022/12/11 08:55:26;;;;;;;20.70;12.68;;;6.60;98.10;;;;;;5111818;28;20055;-57
2022/12/11 08:57:52;;;;;;;19.83;12.00;;;6.70;98.20;;;;;;5111530;28;20030;-56
2022/12/11 09:00:18;;;;;;;18.88;12.60;;;6.80;98.20;;;;;;5111651;28;20058;-57
2022/12/11 09:02:43;;;;;;;17.33;12.27;;;6.80;98.20;;;;;;5111879;28;20038;-54
2022/12/11 09:05:09;;;;;;;15.82;10.95;;;6.80;98.50;;;;;;5111791;28;20408;-55
2022/12/11 09:07:36;;;;;;;16.92;11.30;;;6.90;98.20;;;;;;5111643;28;20050;-55
2022/12/11 09:10:04;;;;;;;18.67;12.05;;;6.90;98.20;;;;;;5111240;28;20114;-54
2022/12/11 09:12:30;;;;;;;16.33;11.15;;;6.90;98.20;;;;;;5110578;28;20511;-54
2022/12/11 09:14:55;;;;;;;18.13;11.82;;;6.90;98.10;;;;;;5111569;28;20027;-55
2022/12/11 09:17:21;;;;;;;16.55;11.57;;;7.00;98.10;;;;;;5111537;28;20027;-55
2022/12/11 09:19:47;;;;;;;17.25;11.32;;;6.90;98.20;;;;;;5109943;28;20438;-55
2022/12/11 09:22:12;;;;;;;16.98;10.70;;;6.90;98.20;;;;;;5111604;28;20072;-56
2022/12/11 09:24:38;;;;;;;15.63;10.75;;;7.00;98.20;;;;;;5111452;28;20030;-58
2022/12/11 09:27:05;;;;;;;16.50;10.95;;;7.10;98.10;;;;;;5111490;28;20031;-59
2022/12/11 09:29:31;;;;;;;16.00;10.68;;;7.10;98.10;;;;;;5111006;28;20027;-53
2022/12/11 09:31:57;;;;;;;14.57;10.02;;;7.10;98.10;;;;;;5111458;28;20473;-56
2022/12/11 09:34:23;;;;;;;17.95;11.05;;;7.10;98.10;;;;;;5111278;28;20118;-58
2022/12/11 09:36:48;;;;;;;16.38;10.52;;;7.10;98.10;;;;;;5111291;28;20107;-57
2022/12/11 09:39:15;;;;;;;15.05;10.80;;;7.10;98.10;;;;;;5112855;28;20027;-56
2022/12/11 09:42:05;;;;;;;15.77;10.10;;;7.10;98.10;;;;;;5115660;28;20031;-55
2022/12/11 09:44:46;;;;;;;17.02;10.80;;;7.10;98.10;;;;;;5115659;28;20020;-55
2022/12/11 09:47:18;;;;;;;15.48;9.90;;;7.10;98.20;;;;;;5115492;28;20023;-56
2022/12/11 09:49:48;;;;;;;14.88;10.35;;;7.10;98.20;;;;;;5114930;28;20020;-53
2022/12/11 09:52:22;;;;;;;13.95;9.68;;;7.10;98.10;;;;;;5115423;28;20023;-55
2022/12/11 09:54:59;;;;;;;17.30;10.15;;;7.10;98.10;;;;;;5115351;28;20031;-53
2022/12/11 09:57:36;;;;;;;14.80;10.02;;;7.10;98.10;;;;;;5115261;28;20015;-53
2022/12/11 10:00:13;;;;;;;15.57;10.15;;;7.10;98.10;;;;;;5114811;28;20477;-55
2022/12/11 10:02:45;;;;;;;13.77;10.23;;;7.10;98.10;;;;;;5115172;28;20089;-53
2022/12/11 10:05:29;;;;;;;15.40;10.02;;;7.10;98.10;;;;;;5115166;28;20034;-57
2022/12/11 10:08:02;;;;;;;15.68;10.00;;;7.10;98.10;;;;;;5114713;28;20442;-54
2022/12/11 10:10:39;;;;;;;13.65;9.15;;;7.10;98.10;;;;;;5114972;28;20469;-58
2022/12/11 10:13:23;;;;;;;12.85;9.07;;;7.10;98.10;;;;;;5115145;28;20387;-58
2022/12/11 10:16:13;;;;;;;14.32;9.85;;;7.10;98.10;;;;;;5114976;28;20019;-56
2022/12/11 10:18:39;;;;;;;15.25;9.52;;;7.00;98.20;;;;;;5114369;28;20023;-57
2022/12/11 10:21:05;;;;;;;14.68;9.27;;;7.00;98.20;;;;;;5114840;28;20023;-53
2022/12/11 10:23:44;;;;;;;14.88;9.90;;;6.90;98.60;;;;;;5114959;28;20028;-55
2022/12/11 10:26:21;;;;;;;14.57;9.50;;;6.90;98.30;;;;;;5114860;28;20024;-57
2022/12/11 10:28:47;;;;;;;15.13;9.77;;;6.90;98.40;;;;;;5114419;28;20039;-54
2022/12/11 10:31:30;;;;;;;14.30;9.52;;;6.90;98.70;;;;;;5114602;28;20031;-54
2022/12/11 10:34:31;;;;;;;14.77;9.50;;;6.90;98.40;;;;;;5114157;28;20062;-57
2022/12/11 10:36:57;;;;;;;14.65;9.23;;;6.90;98.50;;;;;;5100848;28;20035;-55
2022/12/11 10:39:23;;;;;;;14.45;9.43;;;6.90;98.50;;;;;;5113894;28;20031;-56
2022/12/11 10:41:50;;;;;;;15.05;9.85;;;6.90;98.50;;;;;;5114557;28;20545;-55
2022/12/11 10:44:20;;;;;;;14.80;9.18;;;6.80;98.50;;;;;;5114431;28;20035;-55
2022/12/11 10:46:47;;;;;;;13.80;9.13;;;6.80;98.60;;;;;;5114313;28;20059;-57
2022/12/11 10:49:26;;;;;;;13.18;8.57;;;6.80;98.60;;;;;;5113468;28;20033;-59
2022/12/11 10:51:54;;;;;;;13.70;9.23;;;6.80;98.60;;;;;;5114454;28;20024;-58
2022/12/11 10:54:38;;;;;;;13.30;9.00;;;6.80;98.60;;;;;;5114286;28;20027;-55
2022/12/11 10:57:05;;;;;;;13.50;9.32;;;6.80;98.60;;;;;;5114038;28;20034;-56
2022/12/11 10:59:39;;;;;;;14.98;9.40;;;6.80;98.60;;;;;;5113540;28;20099;-55
2022/12/11 11:02:13;;;;;;;;;;;6.80;99.00;;;;;;5114703;28;20020;-54
2022/12/11 11:04:43;;;;;;;11.52;8.35;;;6.80;98.70;;;;;;5114168;28;19951;-53
2022/12/11 11:07:18;;;;;;;11.20;8.20;;;6.80;98.70;;;;;;5113882;28;20388;-53
2022/12/11 11:09:44;;;;;;;13.45;8.57;;;6.80;98.70;;;;;;5113414;27;20027;-56
2022/12/11 11:12:18;;;;;;;13.98;8.85;;;6.80;98.70;;;;;;5112684;28;20118;-56
2022/12/11 11:14:43;;;;;;;12.47;8.17;;;6.80;98.70;;;;;;5113786;28;20019;-55
2022/12/11 11:17:14;;;;;;;12.95;8.63;;;6.80;98.70;;;;;;5113801;28;20758;-54
2022/12/11 11:19:40;;;;;;;12.65;8.15;;;6.80;98.70;;;;;;5113250;27;20122;-54
2022/12/11 11:22:12;;;;;;;12.20;8.18;;;6.80;98.80;;;;;;5113655;28;20130;-57
2022/12/11 11:24:53;;;;;;;13.50;8.05;;;6.80;98.80;;;;;;5113780;27;20022;-57
2022/12/11 11:27:27;;;;;;;13.05;8.35;;;6.80;98.80;;;;;;5113955;28;20476;-55
2022/12/11 11:29:59;;;;;;;12.43;7.70;;;6.80;98.80;;;;;;5113236;28;20016;-55
2022/12/11 11:32:37;;;;;;;11.43;8.25;;;6.80;98.80;;;;;;5113026;28;20023;-56
2022/12/11 11:35:12;;;;;;;13.05;8.45;;;6.80;98.80;;;;;;5113438;28;20017;-56
2022/12/11 11:37:40;;;;;;;12.95;8.38;;;6.80;98.80;;;;;;5113296;28;20027;-59
2022/12/11 11:40:26;;;;;;;12.45;7.93;;;6.80;98.80;;;;;;5112823;28;20066;-53
2022/12/11 11:43:03;;;;;;;13.52;8.45;;;6.80;98.80;;;;;;5113373;28;20106;-56
2022/12/11 11:45:42;;;;;;;12.30;7.90;;;6.80;98.80;;;;;;5113398;27;20043;-58
2022/12/11 11:48:16;;;;;;;12.65;8.23;;;6.80;98.80;;;;;;5112666;28;20059;-58
2022/12/11 11:50:45;;;;;;;11.50;7.57;;;6.80;98.90;;;;;;5113188;28;20035;-55
2022/12/11 11:53:29;;;;;;;11.55;7.97;;;6.80;98.80;;;;;;5113466;28;20024;-54
2022/12/11 11:55:57;;;;;;;12.55;7.65;;;6.80;98.80;;;;;;5112922;28;20028;-57
2022/12/11 11:58:40;;;;;;;12.15;7.78;;;6.80;98.80;;;;;;5112332;28;20028;-58
2022/12/11 12:01:15;;;;;;;12.27;7.75;;;6.80;98.80;;;;;;5112471;28;20095;-57
2022/12/11 12:03:40;;;;;;;;;;;6.80;98.80;;;;;;5113436;28;20503;-58
2022/12/11 12:06:35;;;;;;;12.93;7.57;;;6.80;98.80;;;;;;5113095;28;20006;-52
2022/12/11 12:09:24;;;;;;;11.93;7.78;;;6.80;98.80;;;;;;5097971;28;20036;-57
2022/12/11 12:12:16;;;;;;;11.65;7.38;;;6.80;98.80;;;;;;5112927;28;20076;-56
2022/12/11 12:15:24;;;;;;;11.15;7.03;;;6.80;98.80;;;;;;5112756;28;20041;-52
2022/12/11 12:17:59;;;;;;;11.27;7.28;;;6.80;98.80;;;;;;5069250;28;20107;-55
2022/12/11 12:20:34;;;;;;;12.13;7.15;;;6.80;98.90;;;;;;5100439;28;20165;-56
2022/12/11 12:23:10;;;;;;;10.55;7.15;;;6.80;98.90;;;;;;5112601;28;20012;-55
2022/12/11 12:25:42;;;;;;;11.60;7.30;;;6.80;98.90;;;;;;5112507;28;20027;-54
2022/12/11 12:28:26;;;;;;;11.98;7.25;;;6.80;98.90;;;;;;5111743;27;20031;-55
2022/12/11 12:31:26;;;;;;;11.68;7.00;;;6.80;98.90;;;;;;5112617;28;20119;-57
2022/12/11 12:33:56;;;;;;;9.55;6.05;;;6.80;98.90;;;;;;5111705;28;20031;-56
2022/12/11 12:36:45;;;;;;;10.15;6.82;;;6.80;98.90;;;;;;5112405;28;20019;-53
2022/12/11 12:39:23;;;;;;;9.18;6.45;;;6.80;98.90;;;;;;5105935;28;20488;-52
2022/12/11 12:42:06;;;;;;;9.77;6.90;;;6.80;98.90;;;;;;5112323;28;20117;-54
2022/12/11 12:44:49;;;;;;;10.55;6.80;;;6.80;99.30;;;;;;5112156;28;20244;-54
2022/12/11 12:47:17;;;;;;;11.03;7.43;;;6.80;98.90;;;;;;5112009;28;20049;-55
2022/12/11 12:49:46;;;;;;;9.95;6.22;;;6.80;98.90;;;;;;5111658;28;20110;-54
2022/12/11 12:52:19;;;;;;;10.18;7.03;;;6.80;98.90;;;;;;5112109;28;20024;-55
2022/12/11 12:57:35;;;;;;;9.05;6.07;;;6.80;98.90;;;;;;5112162;28;20119;-54
2022/12/11 13:00:02;;;;;;;9.05;6.00;;;6.80;99.00;;;;;;5111499;28;20530;-56
2022/12/11 13:02:29;;;;;;;11.88;6.40;;;6.80;98.90;;;;;;5111902;28;20020;-56
2022/12/11 13:05:33;;;;;;;8.52;6.15;;;6.80;99.00;;;;;;5112020;28;20035;-56
2022/12/11 13:08:02;;;;;;;17.83;9.95;;;6.80;99.00;;;;;;5111422;28;20035;-49
2022/12/11 13:10:30;;;;;;;15.30;9.60;;;6.70;96.60;;;;;;5112016;28;20019;-49
2022/12/11 13:12:57;;;;;;;13.10;8.48;;;6.60;96.70;;;;;;5111498;28;20443;-51
2022/12/11 13:15:33;;;;;;;17.25;8.95;;;6.50;97.10;;;;;;5111619;28;20051;-49
2022/12/11 13:18:01;;;;;;;14.48;8.80;;;6.50;97.50;;;;;;5111108;28;20427;-51